sensor_id;sensor_type;location;lat;lon;timestamp;pressure;altitude;pressure_sealevel;temperature;humidity
22605;BME280;11469;49.024;8.246;2023-09-19T00:02:12;99977.59;;;16.76;100.00
22605;BME280;11469;49.024;8.246;2023-09-19T00:04:37;99980.00;;;16.77;100.00
22605;BME280;11469;49.024;8.246;2023-09-19T00:07:05;99979.22;;;16.73;100.00
22605;BME280;11469;49.024;8.246;2023-09-19T00:09:31;99976.81;;;16.72;100.00
22605;BME280;11469;49.024;8.246;2023-09-19T00:12:03;99981.28;;;16.69;100.00
22605;BME280;11469;49.024;8.246;2023-09-19T00:14:29;99981.69;;;16.64;100.00
22605;BME280;11469;49.024;8.246;2023-09-19T00:16:54;99991.00;;;16.65;100.00
22605;BME280;11469;49.024;8.246;2023-09-19T00:19:20;99992.59;;;16.62;100.00
22605;BME280;11469;49.024;8.246;2023-09-19T00:21:45;99994.22;;;16.67;100.00
22605;BME280;11469;49.024;8.246;2023-09-19T00:24:12;99987.75;;;16.66;100.00
22605;BME280;11469;49.024;8.246;2023-09-19T00:26:41;99989.34;;;16.71;100.00
22605;BME280;11469;49.024;8.246;2023-09-19T00:29:07;99990.53;;;16.73;100.00
22605;BME280;11469;49.024;8.246;2023-09-19T00:31:34;99989.31;;;16.74;100.00
22605;BME280;11469;49.024;8.246;2023-09-19T00:33:59;99990.53;;;16.73;100.00
22605;BME280;11469;49.024;8.246;2023-09-19T00:36:29;99990.53;;;16.73;100.00
22605;BME280;11469;49.024;8.246;2023-09-19T00:38:55;99988.09;;;16.79;100.00
22605;BME280;11469;49.024;8.246;2023-09-19T00:41:20;99988.94;;;16.72;100.00
22605;BME280;11469;49.024;8.246;2023-09-19T00:43:46;99990.16;;;16.71;100.00
22605;BME280;11469;49.024;8.246;2023-09-19T00:46:15;100000.66;;;16.71;100.00
22605;BME280;11469;49.024;8.246;2023-09-19T00:48:42;100003.91;;;16.66;100.00
22605;BME280;11469;49.024;8.246;2023-09-19T00:51:12;100003.09;;;16.69;100.00
22605;BME280;11469;49.024;8.246;2023-09-19T00:53:39;100002.69;;;16.67;100.00
22605;BME280;11469;49.024;8.246;2023-09-19T00:56:11;100006.72;;;16.69;100.00
22605;BME280;11469;49.024;8.246;2023-09-19T00:58:36;100010.38;;;16.66;100.00
22605;BME280;11469;49.024;8.246;2023-09-19T01:01:02;100011.19;;;16.63;100.00
22605;BME280;11469;49.024;8.246;2023-09-19T01:03:35;100015.63;;;16.68;100.00
22605;BME280;11469;49.024;8.246;2023-09-19T01:06:01;100014.44;;;16.65;100.00
22605;BME280;11469;49.024;8.246;2023-09-19T01:08:27;100023.31;;;16.60;100.00
22605;BME280;11469;49.024;8.246;2023-09-19T01:11:09;100013.22;;;16.55;100.00
22605;BME280;11469;49.024;8.246;2023-09-19T01:16:53;100035.13;;;16.48;100.00
22605;BME280;11469;49.024;8.246;2023-09-19T01:22:13;100046.44;;;16.44;100.00
22605;BME280;11469;49.024;8.246;2023-09-19T01:30:35;100036.78;;;16.38;100.00
22605;BME280;11469;49.024;8.246;2023-09-19T01:33:05;100043.63;;;16.37;100.00
22605;BME280;11469;49.024;8.246;2023-09-19T01:35:31;100040.81;;;16.34;100.00
22605;BME280;11469;49.024;8.246;2023-09-19T01:37:58;100043.63;;;16.37;100.00
22605;BME280;11469;49.024;8.246;2023-09-19T01:40:24;100060.59;;;16.37;100.00
22605;BME280;11469;49.024;8.246;2023-09-19T01:42:58;100048.50;;;16.37;100.00
22605;BME280;11469;49.024;8.246;2023-09-19T01:48:16;100050.50;;;16.40;100.00
22605;BME280;11469;49.024;8.246;2023-09-19T01:50:59;100050.09;;;16.41;100.00
22605;BME280;11469;49.024;8.246;2023-09-19T01:53:27;100050.50;;;16.43;100.00
22605;BME280;11469;49.024;8.246;2023-09-19T01:55:54;100047.63;;;16.50;100.00
22605;BME280;11469;49.024;8.246;2023-09-19T01:58:24;100044.78;;;16.54;100.00
22605;BME280;11469;49.024;8.246;2023-09-19T02:00:54;100057.31;;;16.53;100.00
22605;BME280;11469;49.024;8.246;2023-09-19T02:03:21;100059.28;;;16.59;100.00
22605;BME280;11469;49.024;8.246;2023-09-19T02:05:49;100062.13;;;16.59;100.00
22605;BME280;11469;49.024;8.246;2023-09-19T02:08:17;100061.72;;;16.61;100.00
22605;BME280;11469;49.024;8.246;2023-09-19T02:10:44;100066.16;;;16.62;100.00
22605;BME280;11469;49.024;8.246;2023-09-19T02:13:15;100070.22;;;16.65;100.00
22605;BME280;11469;49.024;8.246;2023-09-19T02:15:42;100073.84;;;16.65;100.00
22605;BME280;11469;49.024;8.246;2023-09-19T02:18:09;100079.50;;;16.65;100.00
22605;BME280;11469;49.024;8.246;2023-09-19T02:20:34;100074.66;;;16.66;100.00
22605;BME280;11469;49.024;8.246;2023-09-19T02:23:00;100079.91;;;16.67;100.00
22605;BME280;11469;49.024;8.246;2023-09-19T02:25:25;100075.47;;;16.66;100.00
22605;BME280;11469;49.024;8.246;2023-09-19T02:27:52;100073.03;;;16.65;100.00
22605;BME280;11469;49.024;8.246;2023-09-19T02:30:19;100071.81;;;16.62;100.00
22605;BME280;11469;49.024;8.246;2023-09-19T02:32:47;100079.06;;;16.63;100.00
22605;BME280;11469;49.024;8.246;2023-09-19T02:35:14;100081.50;;;16.61;100.00
22605;BME280;11469;49.024;8.246;2023-09-19T02:37:45;100088.38;;;16.60;100.00
22605;BME280;11469;49.024;8.246;2023-09-19T02:40:10;100081.91;;;16.59;100.00
22605;BME280;11469;49.024;8.246;2023-09-19T02:42:47;100078.69;;;16.61;100.00
22605;BME280;11469;49.024;8.246;2023-09-19T02:45:14;100092.03;;;16.57;100.00
22605;BME280;11469;49.024;8.246;2023-09-19T02:47:42;100089.59;;;16.55;100.00
22605;BME280;11469;49.024;8.246;2023-09-19T02:50:08;100102.13;;;16.54;100.00
22605;BME280;11469;49.024;8.246;2023-09-19T02:52:37;100098.94;;;16.52;100.00
22605;BME280;11469;49.024;8.246;2023-09-19T02:55:03;100093.69;;;16.51;100.00
22605;BME280;11469;49.024;8.246;2023-09-19T02:57:31;100092.50;;;16.48;100.00
22605;BME280;11469;49.024;8.246;2023-09-19T02:59:59;100094.91;;;16.50;100.00
22605;BME280;11469;49.024;8.246;2023-09-19T03:02:28;100103.00;;;16.48;100.00
22605;BME280;11469;49.024;8.246;2023-09-19T03:04:54;100098.56;;;16.47;100.00
22605;BME280;11469;49.024;8.246;2023-09-19T03:07:20;100100.56;;;16.50;100.00
22605;BME280;11469;49.024;8.246;2023-09-19T03:09:46;100102.59;;;16.49;100.00
22605;BME280;11469;49.024;8.246;2023-09-19T03:12:11;100098.56;;;16.47;100.00
22605;BME280;11469;49.024;8.246;2023-09-19T03:14:36;100107.03;;;16.50;100.00
22605;BME280;11469;49.024;8.246;2023-09-19T03:17:02;100109.44;;;16.52;100.00
22605;BME280;11469;49.024;8.246;2023-09-19T03:19:30;100102.19;;;16.51;100.00
22605;BME280;11469;49.024;8.246;2023-09-19T03:21:59;100098.13;;;16.52;100.00
22605;BME280;11469;49.024;8.246;2023-09-19T03:24:24;100107.03;;;16.54;100.00
22605;BME280;11469;49.024;8.246;2023-09-19T03:26:49;100117.53;;;16.50;100.00
22605;BME280;11469;49.024;8.246;2023-09-19T03:29:15;100105.41;;;16.53;100.00
22605;BME280;11469;49.024;8.246;2023-09-19T03:31:42;100111.88;;;16.50;100.00
22605;BME280;11469;49.024;8.246;2023-09-19T03:34:07;100111.47;;;16.51;100.00
22605;BME280;11469;49.024;8.246;2023-09-19T03:36:34;100108.25;;;16.53;100.00
22605;BME280;11469;49.024;8.246;2023-09-19T03:38:59;100107.03;;;16.50;100.00
22605;BME280;11469;49.024;8.246;2023-09-19T03:41:25;100100.56;;;16.53;100.00
22605;BME280;11469;49.024;8.246;2023-09-19T03:43:50;100103.38;;;16.53;100.00
22605;BME280;11469;49.024;8.246;2023-09-19T03:46:15;100103.75;;;16.55;100.00
22605;BME280;11469;49.024;8.246;2023-09-19T03:48:41;100118.75;;;16.52;100.00
22605;BME280;11469;49.024;8.246;2023-09-19T03:51:06;100117.13;;;16.51;100.00
22605;BME280;11469;49.024;8.246;2023-09-19T03:53:32;100128.44;;;16.51;100.00
22605;BME280;11469;49.024;8.246;2023-09-19T03:55:57;100121.97;;;16.51;100.00
22605;BME280;11469;49.024;8.246;2023-09-19T03:58:22;100124.81;;;16.51;100.00
22605;BME280;11469;49.024;8.246;2023-09-19T04:00:48;100127.63;;;16.51;100.00
22605;BME280;11469;49.024;8.246;2023-09-19T04:03:15;100128.41;;;16.55;100.00
22605;BME280;11469;49.024;8.246;2023-09-19T04:05:46;100128.03;;;16.53;100.00
22605;BME280;11469;49.024;8.246;2023-09-19T04:08:12;100133.28;;;16.51;100.00
22605;BME280;11469;49.024;8.246;2023-09-19T04:10:37;100134.09;;;16.51;100.00
22605;BME280;11469;49.024;8.246;2023-09-19T04:13:03;100132.09;;;16.52;100.00
22605;BME280;11469;49.024;8.246;2023-09-19T04:15:29;100134.91;;;16.52;100.00
22605;BME280;11469;49.024;8.246;2023-09-19T04:17:54;100138.53;;;16.52;100.00
22605;BME280;11469;49.024;8.246;2023-09-19T04:20:20;100149.47;;;16.50;100.00
22605;BME280;11469;49.024;8.246;2023-09-19T04:22:47;100150.28;;;16.51;100.00
22605;BME280;11469;49.024;8.246;2023-09-19T04:25:12;100146.22;;;16.48;100.00
22605;BME280;11469;49.024;8.246;2023-09-19T04:27:38;100153.91;;;16.48;100.00
22605;BME280;11469;49.024;8.246;2023-09-19T04:30:04;100144.22;;;16.45;100.00
22605;BME280;11469;49.024;8.246;2023-09-19T04:32:35;100151.09;;;16.48;100.00
22605;BME280;11469;49.024;8.246;2023-09-19T04:35:01;100161.59;;;16.47;100.00
22605;BME280;11469;49.024;8.246;2023-09-19T04:37:31;100166.03;;;16.48;100.00
22605;BME280;11469;49.024;8.246;2023-09-19T04:39:56;100166.44;;;16.47;100.00
22605;BME280;11469;49.024;8.246;2023-09-19T04:42:22;100166.03;;;16.48;100.00
22605;BME280;11469;49.024;8.246;2023-09-19T04:44:49;100168.47;;;16.46;100.00
22605;BME280;11469;49.024;8.246;2023-09-19T04:47:15;100154.31;;;16.46;100.00
22605;BME280;11469;49.024;8.246;2023-09-19T04:49:41;100164.81;;;16.46;100.00
22605;BME280;11469;49.024;8.246;2023-09-19T04:52:06;100162.00;;;16.46;100.00
22605;BME280;11469;49.024;8.246;2023-09-19T04:54:32;100169.66;;;16.45;100.00
22605;BME280;11469;49.024;8.246;2023-09-19T04:56:59;100172.91;;;16.44;100.00
22605;BME280;11469;49.024;8.246;2023-09-19T04:59:25;100181.41;;;16.44;100.00
22605;BME280;11469;49.024;8.246;2023-09-19T05:01:50;100176.56;;;16.41;100.00
22605;BME280;11469;49.024;8.246;2023-09-19T05:04:16;100176.16;;;16.39;100.00
22605;BME280;11469;49.024;8.246;2023-09-19T05:06:41;100180.19;;;16.41;100.00
22605;BME280;11469;49.024;8.246;2023-09-19T05:09:07;100182.22;;;16.41;100.00
22605;BME280;11469;49.024;8.246;2023-09-19T05:11:33;100191.09;;;16.36;100.00
22605;BME280;11469;49.024;8.246;2023-09-19T05:13:59;100188.28;;;16.32;100.00
22605;BME280;11469;49.024;8.246;2023-09-19T05:16:29;100185.44;;;16.32;100.00
22605;BME280;11469;49.024;8.246;2023-09-19T05:18:57;100192.31;;;16.31;100.00
22605;BME280;11469;49.024;8.246;2023-09-19T05:21:23;100195.53;;;16.33;100.00
22605;BME280;11469;49.024;8.246;2023-09-19T05:23:51;100211.72;;;16.36;100.00
22605;BME280;11469;49.024;8.246;2023-09-19T05:26:17;100220.59;;;16.35;100.00
22605;BME280;11469;49.024;8.246;2023-09-19T05:28:43;100219.38;;;16.39;100.00
22605;BME280;11469;49.024;8.246;2023-09-19T05:31:08;100227.06;;;16.35;100.00
22605;BME280;11469;49.024;8.246;2023-09-19T05:33:34;100229.06;;;16.38;100.00
22605;BME280;11469;49.024;8.246;2023-09-19T05:35:59;100235.94;;;16.34;100.00
22605;BME280;11469;49.024;8.246;2023-09-19T05:38:25;100233.53;;;16.32;100.00
22605;BME280;11469;49.024;8.246;2023-09-19T05:40:52;100235.53;;;16.32;100.00
22605;BME280;11469;49.024;8.246;2023-09-19T05:43:18;100229.47;;;16.33;100.00
22605;BME280;11469;49.024;8.246;2023-09-19T05:45:44;100245.22;;;16.31;100.00
22605;BME280;11469;49.024;8.246;2023-09-19T05:48:14;100250.88;;;16.34;100.00
22605;BME280;11469;49.024;8.246;2023-09-19T05:50:41;100245.22;;;16.31;100.00
22605;BME280;11469;49.024;8.246;2023-09-19T05:53:07;100247.66;;;16.32;100.00
22605;BME280;11469;49.024;8.246;2023-09-19T05:55:33;100254.13;;;16.36;100.00
22605;BME280;11469;49.024;8.246;2023-09-19T05:57:58;100270.69;;;16.38;100.00
22605;BME280;11469;49.024;8.246;2023-09-19T06:00:25;100262.59;;;16.40;100.00
22605;BME280;11469;49.024;8.246;2023-09-19T06:02:56;100261.81;;;16.43;100.00
22605;BME280;11469;49.024;8.246;2023-09-19T06:05:23;100268.25;;;16.40;100.00
22605;BME280;11469;49.024;8.246;2023-09-19T06:07:49;100264.63;;;16.43;100.00
22605;BME280;11469;49.024;8.246;2023-09-19T06:10:15;100262.22;;;16.41;100.00
22605;BME280;11469;49.024;8.246;2023-09-19T06:12:41;100267.06;;;16.48;100.00
22605;BME280;11469;49.024;8.246;2023-09-19T06:15:09;100274.31;;;16.49;100.00
22605;BME280;11469;49.024;8.246;2023-09-19T06:17:42;100271.50;;;16.52;100.00
22605;BME280;11469;49.024;8.246;2023-09-19T06:20:08;100276.75;;;16.50;100.00
22605;BME280;11469;49.024;8.246;2023-09-19T06:22:41;100280.38;;;16.47;100.00
22605;BME280;11469;49.024;8.246;2023-09-19T06:25:08;100274.72;;;16.51;100.00
22605;BME280;11469;49.024;8.246;2023-09-19T06:27:37;100292.09;;;16.49;100.00
22605;BME280;11469;49.024;8.246;2023-09-19T06:30:02;100288.47;;;16.49;100.00
22605;BME280;11469;49.024;8.246;2023-09-19T06:32:28;100290.50;;;16.48;100.00
22605;BME280;11469;49.024;8.246;2023-09-19T06:34:54;100293.72;;;16.54;100.00
22605;BME280;11469;49.024;8.246;2023-09-19T06:37:20;100294.50;;;16.62;100.00
22605;BME280;11469;49.024;8.246;2023-09-19T06:39:46;100292.91;;;16.64;100.00
22605;BME280;11469;49.024;8.246;2023-09-19T06:42:15;100305.84;;;16.65;100.00
22605;BME280;11469;49.024;8.246;2023-09-19T06:44:42;100299.38;;;16.72;100.00
22605;BME280;11469;49.024;8.246;2023-09-19T06:47:07;100298.56;;;16.78;100.00
22605;BME280;11469;49.024;8.246;2023-09-19T06:49:33;100299.78;;;16.77;100.00
22605;BME280;11469;49.024;8.246;2023-09-19T06:51:59;100298.56;;;16.82;100.00
22605;BME280;11469;49.024;8.246;2023-09-19T06:54:24;100301.38;;;16.85;100.00
22605;BME280;11469;49.024;8.246;2023-09-19T06:56:49;100305.84;;;16.90;100.00
22605;BME280;11469;49.024;8.246;2023-09-19T06:59:15;100309.06;;;16.96;100.00
22605;BME280;11469;49.024;8.246;2023-09-19T07:01:41;100308.66;;;16.97;100.00
22605;BME280;11469;49.024;8.246;2023-09-19T07:04:09;100316.31;;;17.00;100.00
22605;BME280;11469;49.024;8.246;2023-09-19T07:06:35;100311.44;;;17.11;100.00
22605;BME280;11469;49.024;8.246;2023-09-19T07:09:00;100315.47;;;17.07;100.00
22605;BME280;11469;49.024;8.246;2023-09-19T07:11:26;100317.88;;;17.19;100.00
22605;BME280;11469;49.024;8.246;2023-09-19T07:13:51;100312.22;;;17.22;100.00
22605;BME280;11469;49.024;8.246;2023-09-19T07:16:17;100313.81;;;17.31;100.00
22605;BME280;11469;49.024;8.246;2023-09-19T07:18:53;100324.28;;;17.48;100.00
22605;BME280;11469;49.024;8.246;2023-09-19T07:21:18;100326.31;;;17.47;100.00
22605;BME280;11469;49.024;8.246;2023-09-19T07:23:44;100318.13;;;17.60;100.00
22605;BME280;11469;49.024;8.246;2023-09-19T07:26:09;100323.81;;;17.67;100.00
22605;BME280;11469;49.024;8.246;2023-09-19T07:28:35;100323.34;;;17.79;100.00
22605;BME280;11469;49.024;8.246;2023-09-19T07:31:02;100328.16;;;17.89;100.00
22605;BME280;11469;49.024;8.246;2023-09-19T07:33:34;100329.69;;;17.98;100.00
22605;BME280;11469;49.024;8.246;2023-09-19T07:35:59;100326.44;;;18.03;100.00
22605;BME280;11469;49.024;8.246;2023-09-19T07:38:25;100325.16;;;18.11;100.00
22605;BME280;11469;49.024;8.246;2023-09-19T07:40:52;100330.84;;;18.11;100.00
22605;BME280;11469;49.024;8.246;2023-09-19T07:43:17;100338.97;;;18.05;98.29
22605;BME280;11469;49.024;8.246;2023-09-19T07:45:43;100351.91;;;18.10;98.77
22605;BME280;11469;49.024;8.246;2023-09-19T07:48:08;100352.38;;;17.98;97.21
22605;BME280;11469;49.024;8.246;2023-09-19T07:50:39;100360.41;;;18.10;97.98
22605;BME280;11469;49.024;8.246;2023-09-19T07:53:05;100355.13;;;18.15;96.12
22605;BME280;11469;49.024;8.246;2023-09-19T07:55:31;100357.13;;;18.22;96.50
22605;BME280;11469;49.024;8.246;2023-09-19T07:57:59;100365.13;;;18.38;96.41
22605;BME280;11469;49.024;8.246;2023-09-19T08:00:24;100364.69;;;18.43;94.46
22605;BME280;11469;49.024;8.246;2023-09-19T08:02:50;100372.25;;;18.56;94.14
22605;BME280;11469;49.024;8.246;2023-09-19T08:05:17;100372.56;;;18.76;93.51
22605;BME280;11469;49.024;8.246;2023-09-19T08:07:44;100365.94;;;18.90;92.59
22605;BME280;11469;49.024;8.246;2023-09-19T08:10:14;100373.53;;;19.00;91.99
22605;BME280;11469;49.024;8.246;2023-09-19T08:12:42;100378.38;;;19.03;89.51
22605;BME280;11469;49.024;8.246;2023-09-19T08:15:20;100378.69;;;19.12;90.07
22605;BME280;11469;49.024;8.246;2023-09-19T08:17:45;100374.66;;;19.10;88.57
22605;BME280;11469;49.024;8.246;2023-09-19T08:20:12;100375.63;;;18.93;88.33
22605;BME280;11469;49.024;8.246;2023-09-19T08:22:50;100373.13;;;19.02;88.84
22605;BME280;11469;49.024;8.246;2023-09-19T08:25:17;100374.28;;;19.08;87.84
22605;BME280;11469;49.024;8.246;2023-09-19T08:27:46;100375.91;;;19.09;87.06
22605;BME280;11469;49.024;8.246;2023-09-19T08:30:17;100387.19;;;19.16;86.00
22605;BME280;11469;49.024;8.246;2023-09-19T08:32:43;100385.59;;;19.15;83.18
22605;BME280;11469;49.024;8.246;2023-09-19T08:35:10;100382.63;;;19.26;84.48
22605;BME280;11469;49.024;8.246;2023-09-19T08:37:35;100383.66;;;19.42;81.63
22605;BME280;11469;49.024;8.246;2023-09-19T08:40:01;100379.88;;;19.56;81.67
22605;BME280;11469;49.024;8.246;2023-09-19T08:42:27;100373.75;;;19.61;79.11
22605;BME280;11469;49.024;8.246;2023-09-19T08:44:52;100379.81;;;19.63;78.52
22605;BME280;11469;49.024;8.246;2023-09-19T08:47:30;100380.56;;;19.67;76.82
22605;BME280;11469;49.024;8.246;2023-09-19T08:50:26;100383.56;;;19.53;76.15
22605;BME280;11469;49.024;8.246;2023-09-19T08:52:55;100385.94;;;19.20;77.24
22605;BME280;11469;49.024;8.246;2023-09-19T08:55:23;100393.22;;;19.21;76.77
22605;BME280;11469;49.024;8.246;2023-09-19T08:57:52;100395.50;;;19.37;77.86
22605;BME280;11469;49.024;8.246;2023-09-19T09:00:21;100397.41;;;19.51;75.50
22605;BME280;11469;49.024;8.246;2023-09-19T09:02:49;100386.69;;;19.66;72.11
22605;BME280;11469;49.024;8.246;2023-09-19T09:05:15;100385.75;;;19.76;70.17
22605;BME280;11469;49.024;8.246;2023-09-19T09:07:48;100392.66;;;19.75;69.28
22605;BME280;11469;49.024;8.246;2023-09-19T09:10:15;100387.41;;;19.73;68.91
22605;BME280;11469;49.024;8.246;2023-09-19T09:12:41;100392.47;;;19.89;69.65
22605;BME280;11469;49.024;8.246;2023-09-19T09:15:09;100389.53;;;19.96;68.33
22605;BME280;11469;49.024;8.246;2023-09-19T09:17:37;100376.50;;;19.99;68.16
22605;BME280;11469;49.024;8.246;2023-09-19T09:20:03;100387.97;;;19.92;67.50
22605;BME280;11469;49.024;8.246;2023-09-19T09:22:30;100387.28;;;19.84;67.60
22605;BME280;11469;49.024;8.246;2023-09-19T09:24:57;100377.81;;;19.91;67.18
22605;BME280;11469;49.024;8.246;2023-09-19T09:27:30;100386.19;;;20.05;68.69
22605;BME280;11469;49.024;8.246;2023-09-19T09:29:57;100391.81;;;20.08;67.60
22605;BME280;11469;49.024;8.246;2023-09-19T09:32:30;100378.94;;;20.00;68.07
22605;BME280;11469;49.024;8.246;2023-09-19T09:35:00;100377.06;;;20.17;68.59
22605;BME280;11469;49.024;8.246;2023-09-19T09:37:26;100366.34;;;20.28;67.65
22605;BME280;11469;49.024;8.246;2023-09-19T09:40:01;100372.16;;;20.21;66.92
22605;BME280;11469;49.024;8.246;2023-09-19T09:42:42;100380.19;;;20.26;65.71
22605;BME280;11469;49.024;8.246;2023-09-19T09:45:22;100365.59;;;20.24;66.09
22605;BME280;11469;49.024;8.246;2023-09-19T09:48:03;100372.84;;;20.29;66.80
22605;BME280;11469;49.024;8.246;2023-09-19T09:50:35;100375.56;;;20.36;66.53
22605;BME280;11469;49.024;8.246;2023-09-19T09:53:27;100378.38;;;20.39;65.31
22605;BME280;11469;49.024;8.246;2023-09-19T09:56:06;100380.69;;;20.48;66.24
22605;BME280;11469;49.024;8.246;2023-09-19T09:58:34;100377.47;;;20.46;65.22
22605;BME280;11469;49.024;8.246;2023-09-19T10:01:01;100378.81;;;20.38;65.60
22605;BME280;11469;49.024;8.246;2023-09-19T10:03:38;100390.00;;;20.52;65.14
22605;BME280;11469;49.024;8.246;2023-09-19T10:06:12;100382.63;;;20.54;64.95
22605;BME280;11469;49.024;8.246;2023-09-19T10:09:07;100387.97;;;20.52;63.77
22605;BME280;11469;49.024;8.246;2023-09-19T10:11:48;100372.44;;;20.57;63.86
22605;BME280;11469;49.024;8.246;2023-09-19T10:14:27;100386.41;;;20.48;62.59
22605;BME280;11469;49.024;8.246;2023-09-19T10:16:58;100379.31;;;20.60;62.84
22605;BME280;11469;49.024;8.246;2023-09-19T10:19:38;100382.69;;;20.78;64.26
22605;BME280;11469;49.024;8.246;2023-09-19T10:22:10;100374.63;;;20.96;63.83
22605;BME280;11469;49.024;8.246;2023-09-19T10:24:37;100387.63;;;21.20;62.57
22605;BME280;11469;49.024;8.246;2023-09-19T10:27:06;100372.53;;;21.24;63.20
22605;BME280;11469;49.024;8.246;2023-09-19T10:29:35;100369.97;;;21.29;61.55
22605;BME280;11469;49.024;8.246;2023-09-19T10:32:03;100378.44;;;21.33;62.01
22605;BME280;11469;49.024;8.246;2023-09-19T10:34:34;100380.31;;;21.43;61.71
22605;BME280;11469;49.024;8.246;2023-09-19T10:37:02;100369.53;;;21.31;61.66
22605;BME280;11469;49.024;8.246;2023-09-19T10:39:32;100376.72;;;21.39;60.80
22605;BME280;11469;49.024;8.246;2023-09-19T10:42:02;100369.97;;;21.29;60.10
22605;BME280;11469;49.024;8.246;2023-09-19T10:44:32;100377.91;;;21.18;59.91
22605;BME280;11469;49.024;8.246;2023-09-19T10:46:58;100366.13;;;21.16;60.58
22605;BME280;11469;49.024;8.246;2023-09-19T10:49:24;100382.38;;;21.19;60.21
22605;BME280;11469;49.024;8.246;2023-09-19T10:51:56;100369.25;;;21.25;60.91
22605;BME280;11469;49.024;8.246;2023-09-19T10:54:29;100370.50;;;21.44;61.08
22605;BME280;11469;49.024;8.246;2023-09-19T10:56:58;100362.50;;;21.59;60.21
22605;BME280;11469;49.024;8.246;2023-09-19T10:59:25;100370.16;;;21.62;60.47
22605;BME280;11469;49.024;8.246;2023-09-19T11:01:55;100358.69;;;21.65;60.79
22605;BME280;11469;49.024;8.246;2023-09-19T11:04:35;100366.38;;;21.68;58.60
22605;BME280;11469;49.024;8.246;2023-09-19T11:15:02;100359.13;;;21.64;60.63
22605;BME280;11469;49.024;8.246;2023-09-19T11:30:46;100349.88;;;21.96;59.07
22605;BME280;11469;49.024;8.246;2023-09-19T11:36:07;100340.44;;;21.99;58.24
22605;BME280;11469;49.024;8.246;2023-09-19T11:46:52;100330.94;;;22.05;57.61
22605;BME280;11469;49.024;8.246;2023-09-19T11:49:29;100323.03;;;22.13;58.13
22605;BME280;11469;49.024;8.246;2023-09-19T11:51:58;100314.63;;;22.22;58.91
22605;BME280;11469;49.024;8.246;2023-09-19T11:54:31;100316.38;;;22.20;56.04
22605;BME280;11469;49.024;8.246;2023-09-19T11:56:58;100312.34;;;22.17;57.17
22605;BME280;11469;49.024;8.246;2023-09-19T11:59:28;100318.72;;;22.05;58.07
22605;BME280;11469;49.024;8.246;2023-09-19T12:02:05;100316.16;;;22.10;57.79
22605;BME280;11469;49.024;8.246;2023-09-19T12:07:04;100303.66;;;22.04;57.10
22605;BME280;11469;49.024;8.246;2023-09-19T12:09:31;100298.69;;;22.25;56.90
22605;BME280;11469;49.024;8.246;2023-09-19T12:11:57;100302.28;;;22.45;56.26
22605;BME280;11469;49.024;8.246;2023-09-19T12:14:26;100302.38;;;22.58;55.92
22605;BME280;11469;49.024;8.246;2023-09-19T12:16:57;100300.69;;;22.60;53.10
22605;BME280;11469;49.024;8.246;2023-09-19T12:19:24;100308.50;;;22.40;53.83
22605;BME280;11469;49.024;8.246;2023-09-19T12:22:02;100297.09;;;22.40;53.44
22605;BME280;11469;49.024;8.246;2023-09-19T12:24:32;100296.38;;;22.52;53.62
22605;BME280;11469;49.024;8.246;2023-09-19T12:27:05;100296.22;;;22.59;52.71
22605;BME280;11469;49.024;8.246;2023-09-19T12:29:32;100297.09;;;22.56;52.81
22605;BME280;11469;49.024;8.246;2023-09-19T12:32:07;100280.75;;;22.73;53.32
22605;BME280;11469;49.024;8.246;2023-09-19T12:34:33;100285.78;;;22.52;53.05
22605;BME280;11469;49.024;8.246;2023-09-19T12:39:50;100268.47;;;22.60;53.09
22605;BME280;11469;49.024;8.246;2023-09-19T12:42:24;100274.06;;;22.79;52.29
22605;BME280;11469;49.024;8.246;2023-09-19T12:44:53;100278.19;;;22.78;51.47
22605;BME280;11469;49.024;8.246;2023-09-19T12:47:22;100280.84;;;22.69;51.07
22605;BME280;11469;49.024;8.246;2023-09-19T12:50:10;100267.31;;;22.57;52.66
22605;BME280;11469;49.024;8.246;2023-09-19T12:52:56;100266.31;;;22.47;52.68
22605;BME280;11469;49.024;8.246;2023-09-19T12:55:27;100259.97;;;22.56;53.33
22605;BME280;11469;49.024;8.246;2023-09-19T12:57:56;100256.06;;;22.66;53.30
22605;BME280;11469;49.024;8.246;2023-09-19T13:00:31;100253.03;;;22.57;53.79
22605;BME280;11469;49.024;8.246;2023-09-19T13:03:19;100254.50;;;22.78;53.89
22605;BME280;11469;49.024;8.246;2023-09-19T13:06:02;100255.50;;;22.88;53.82
22605;BME280;11469;49.024;8.246;2023-09-19T13:08:34;100251.97;;;23.12;54.95
22605;BME280;11469;49.024;8.246;2023-09-19T13:11:13;100252.75;;;23.13;53.77
22605;BME280;11469;49.024;8.246;2023-09-19T13:14:13;100253.13;;;23.15;52.64
22605;BME280;11469;49.024;8.246;2023-09-19T13:17:12;100255.47;;;23.04;52.79
22605;BME280;11469;49.024;8.246;2023-09-19T13:19:51;100245.03;;;22.97;53.16
22605;BME280;11469;49.024;8.246;2023-09-19T13:22:45;100236.19;;;22.92;53.42
22605;BME280;11469;49.024;8.246;2023-09-19T13:25:23;100243.06;;;22.78;53.84
22605;BME280;11469;49.024;8.246;2023-09-19T13:27:56;100247.63;;;22.75;53.73
22605;BME280;11469;49.024;8.246;2023-09-19T13:30:26;100245.66;;;22.72;54.73
22605;BME280;11469;49.024;8.246;2023-09-19T13:32:52;100245.41;;;22.83;54.49
22605;BME280;11469;49.024;8.246;2023-09-19T13:35:19;100236.91;;;22.96;54.49
22605;BME280;11469;49.024;8.246;2023-09-19T13:37:46;100247.69;;;23.04;54.08
22605;BME280;11469;49.024;8.246;2023-09-19T13:40:15;100240.72;;;23.05;54.06
22605;BME280;11469;49.024;8.246;2023-09-19T13:42:41;100237.41;;;23.07;54.19
22605;BME280;11469;49.024;8.246;2023-09-19T13:45:07;100237.66;;;23.12;54.26
22605;BME280;11469;49.024;8.246;2023-09-19T13:47:37;100228.97;;;23.16;54.25